Time;durP1;ratioP1;P1;durP2;ratioP2;P2;SDS_P1;SDS_P2;PMS_P1;PMS_P2;Temp;Humidity;BMP_temperature;BMP_pressure;BME280_temperature;BME280_humidity;BME280_pressure;Samples;Min_cycle;Max_cycle;Signal;HPM_P1;HPM_P2
2023/08/28 00:03:15;;;;;;;3.72;1.20;;;11.00;99.90;;;;;;7302621;32;20200;-57
2023/08/28 00:07:16;;;;;;;4.37;1.25;;;10.90;99.90;;;;;;7300835;32;20541;-57
2023/08/28 00:11:18;;;;;;;1.73;1.10;;;10.90;99.90;;;;;;7299282;32;20112;-56
2023/08/28 00:15:20;;;;;;;4.10;1.30;;;11.00;99.90;;;;;;7299088;32;20115;-55
2023/08/28 00:19:22;;;;;;;2.08;1.20;;;10.90;99.90;;;;;;7299595;32;20108;-56
2023/08/28 00:23:23;;;;;;;7.60;1.70;;;10.80;99.90;;;;;;7297507;32;20099;-57
2023/08/28 00:27:25;;;;;;;1.87;1.40;;;10.90;99.90;;;;;;7303428;32;20178;-56
2023/08/28 00:31:27;;;;;;;4.43;1.40;;;10.80;99.90;;;;;;7303545;32;20103;-56
2023/08/28 00:35:29;;;;;;;2.40;1.35;;;10.80;99.90;;;;;;7300683;32;20112;-56
2023/08/28 00:39:31;;;;;;;3.78;1.20;;;10.80;99.90;;;;;;7298676;32;20281;-56
2023/08/28 00:43:32;;;;;;;2.83;1.65;;;10.70;99.90;;;;;;7303010;32;20104;-56
2023/08/28 00:47:35;;;;;;;1.60;1.37;;;10.70;99.90;;;;;;7294137;32;20104;-57
2023/08/28 00:51:38;;;;;;;3.80;1.40;;;10.70;99.90;;;;;;7300062;32;20475;-57
2023/08/28 00:55:40;;;;;;;3.97;1.30;;;10.70;99.90;;;;;;7300008;32;20235;-56
2023/08/28 00:59:43;;;;;;;4.15;1.35;;;10.70;99.90;;;;;;7299513;32;20487;-56
2023/08/28 01:03:45;;;;;;;5.03;1.55;;;10.70;99.90;;;;;;7296647;32;20483;-55
2023/08/28 01:07:56;;;;;;;3.50;1.60;;;10.70;99.90;;;;;;7294944;32;20150;-57
2023/08/28 01:12:17;;;;;;;3.75;1.83;;;10.70;99.90;;;;;;7295127;32;20281;-57
2023/08/28 01:16:22;;;;;;;3.03;1.70;;;10.60;99.90;;;;;;7293152;32;20234;-56
2023/08/28 01:20:27;;;;;;;3.75;1.55;;;10.70;99.90;;;;;;7300283;32;20127;-56
2023/08/28 01:24:30;;;;;;;4.57;1.90;;;10.60;99.90;;;;;;7300713;32;20695;-55
2023/08/28 01:28:32;;;;;;;3.72;1.73;;;10.60;99.90;;;;;;7297230;32;20207;-56
2023/08/28 01:32:34;;;;;;;4.15;1.67;;;10.60;99.90;;;;;;7292720;32;20218;-56
2023/08/28 01:36:53;;;;;;;5.00;1.70;;;10.50;99.90;;;;;;7297924;32;20112;-57
2023/08/28 01:40:57;;;;;;;5.90;1.80;;;10.60;99.90;;;;;;7296947;32;20231;-56
2023/08/28 01:45:00;;;;;;;3.67;1.80;;;10.50;99.90;;;;;;7294957;32;20202;-57
2023/08/28 01:49:02;;;;;;;6.22;2.53;;;10.50;99.90;;;;;;7295432;32;20292;-56
2023/08/28 01:53:04;;;;;;;4.25;2.30;;;10.40;99.90;;;;;;7297199;32;20566;-55
2023/08/28 01:57:06;;;;;;;2.55;1.80;;;10.40;99.90;;;;;;7294654;32;20186;-56
2023/08/28 02:01:07;;;;;;;3.47;1.90;;;10.30;99.90;;;;;;7290018;32;20466;-57
2023/08/28 02:05:09;;;;;;;3.28;2.00;;;10.40;99.90;;;;;;7300175;32;20157;-56
2023/08/28 02:09:11;;;;;;;2.35;2.00;;;10.30;99.90;;;;;;7296592;32;20104;-57
2023/08/28 02:13:13;;;;;;;4.40;2.37;;;10.40;99.90;;;;;;7294713;32;20175;-55
2023/08/28 02:17:15;;;;;;;3.12;2.12;;;10.30;99.90;;;;;;7290181;32;20096;-56
2023/08/28 02:21:16;;;;;;;3.67;2.00;;;10.40;99.90;;;;;;7289994;32;20108;-56
2023/08/28 02:25:20;;;;;;;3.53;2.22;;;10.30;99.90;;;;;;7295991;32;20104;-56
2023/08/28 02:29:22;;;;;;;3.33;2.25;;;10.30;99.90;;;;;;7294942;32;20211;-56
2023/08/28 02:33:24;;;;;;;2.92;2.30;;;10.30;99.90;;;;;;7302321;32;20222;-56
2023/08/28 02:37:25;;;;;;;4.43;2.40;;;10.30;99.90;;;;;;7286011;32;20097;-56
2023/08/28 02:41:27;;;;;;;7.05;2.20;;;10.30;99.90;;;;;;7293042;32;20122;-56
2023/08/28 02:45:29;;;;;;;4.25;2.62;;;10.20;99.90;;;;;;7295642;32;20119;-57
2023/08/28 02:49:31;;;;;;;3.85;2.50;;;10.20;99.90;;;;;;7301470;32;20304;-57
2023/08/28 02:53:32;;;;;;;3.03;2.67;;;10.20;99.90;;;;;;7305031;32;20100;-56
2023/08/28 02:57:34;;;;;;;3.30;2.40;;;10.30;99.90;;;;;;7305329;32;20096;-55
2023/08/28 03:01:36;;;;;;;4.57;2.35;;;10.20;99.90;;;;;;7297168;32;20120;-56
2023/08/28 03:05:37;;;;;;;6.53;3.00;;;10.20;99.90;;;;;;7295815;32;20115;-56
2023/08/28 03:09:39;;;;;;;4.95;2.90;;;10.20;99.90;;;;;;7300115;32;20111;-56
2023/08/28 03:13:41;;;;;;;5.30;3.33;;;10.30;99.90;;;;;;7304520;32;20223;-57
2023/08/28 03:17:42;;;;;;;4.97;3.42;;;10.30;99.90;;;;;;7302354;32;20124;-57
2023/08/28 03:21:45;;;;;;;5.15;4.50;;;10.40;99.90;;;;;;7296146;32;20159;-56
2023/08/28 03:25:46;;;;;;;6.40;3.80;;;10.50;99.90;;;;;;7303049;32;20510;-55
2023/08/28 03:29:48;;;;;;;8.63;4.32;;;10.60;99.90;;;;;;7299519;32;20182;-55
2023/08/28 03:33:50;;;;;;;4.78;4.25;;;10.60;99.90;;;;;;7303839;32;20218;-56
2023/08/28 03:37:52;;;;;;;7.70;4.70;;;10.80;99.90;;;;;;7299948;32;20222;-55
2023/08/28 03:41:53;;;;;;;7.80;4.85;;;10.90;99.90;;;;;;7298209;32;20104;-56
2023/08/28 03:45:55;;;;;;;7.93;4.80;;;11.00;99.90;;;;;;7304099;32;20219;-56
2023/08/28 03:49:57;;;;;;;8.40;5.55;;;11.00;99.90;;;;;;7301213;32;20095;-56
2023/08/28 03:54:01;;;;;;;6.70;6.03;;;11.10;99.90;;;;;;7300118;32;20594;-56
2023/08/28 03:58:03;;;;;;;6.78;5.62;;;11.10;99.90;;;;;;7303927;32;20141;-57
2023/08/28 04:02:05;;;;;;;9.02;6.00;;;11.20;99.90;;;;;;7304348;32;20235;-57
2023/08/28 04:06:08;;;;;;;7.28;5.78;;;11.20;99.90;;;;;;7300602;32;20188;-57
2023/08/28 04:10:11;;;;;;;7.20;5.55;;;11.30;99.90;;;;;;7298842;32;20099;-56
2023/08/28 04:14:12;;;;;;;6.30;5.65;;;11.30;99.90;;;;;;7301706;32;20127;-56
2023/08/28 04:18:14;;;;;;;7.62;5.87;;;11.30;99.90;;;;;;7301899;32;20115;-56
2023/08/28 04:22:16;;;;;;;6.65;5.97;;;11.30;99.90;;;;;;7297199;32;20108;-55
2023/08/28 04:26:17;;;;;;;7.85;5.40;;;11.30;99.90;;;;;;7304792;32;20103;-57
2023/08/28 04:30:19;;;;;;;5.45;4.82;;;11.20;99.90;;;;;;7295481;32;21215;-56
2023/08/28 04:34:21;;;;;;;5.10;4.10;;;11.10;99.90;;;;;;7301594;32;20124;-56
2023/08/28 04:38:23;;;;;;;6.80;4.03;;;11.00;99.90;;;;;;7299662;32;20143;-56
2023/08/28 04:42:25;;;;;;;7.00;3.97;;;10.90;99.90;;;;;;7298977;32;20153;-57
2023/08/28 04:46:28;;;;;;;4.22;3.55;;;10.90;99.90;;;;;;7299934;32;20195;-57
2023/08/28 04:50:30;;;;;;;5.15;3.83;;;10.80;99.90;;;;;;7295743;32;20158;-57
2023/08/28 04:54:33;;;;;;;4.32;3.62;;;10.70;99.90;;;;;;7298865;32;20119;-56
2023/08/28 04:58:35;;;;;;;4.10;3.42;;;10.70;99.90;;;;;;7300109;32;20514;-56
2023/08/28 05:02:37;;;;;;;13.88;11.12;;;10.60;99.90;;;;;;7289038;32;20253;-56
2023/08/28 05:06:38;;;;;;;10.10;7.28;;;10.70;99.90;;;;;;7288668;32;20180;-56
2023/08/28 05:10:40;;;;;;;5.82;3.75;;;10.60;99.90;;;;;;7294615;32;20119;-56
2023/08/28 05:14:42;;;;;;;4.40;3.35;;;10.70;99.90;;;;;;7299475;32;20910;-56
2023/08/28 05:18:44;;;;;;;5.20;3.37;;;10.60;99.90;;;;;;7298494;32;20104;-56
2023/08/28 05:22:46;;;;;;;5.18;4.07;;;10.60;99.90;;;;;;7295339;32;20191;-58
2023/08/28 05:26:47;;;;;;;9.40;3.55;;;10.70;99.90;;;;;;7296916;32;20123;-57
2023/08/28 05:30:49;;;;;;;6.75;3.85;;;10.70;99.90;;;;;;7297548;32;20154;-56
2023/08/28 05:34:53;;;;;;;7.15;4.62;;;10.70;99.90;;;;;;7290197;32;20589;-56
2023/08/28 05:38:55;;;;;;;6.07;4.00;;;10.80;99.90;;;;;;7296793;32;20097;-56
2023/08/28 05:42:57;;;;;;;7.03;4.93;;;11.10;99.90;;;;;;7298537;32;20449;-56
2023/08/28 05:46:58;;;;;;;12.63;9.43;;;11.20;99.90;;;;;;7288296;32;20104;-56
2023/08/28 05:51:00;;;;;;;16.58;9.25;;;11.40;99.90;;;;;;7291752;32;20556;-56
2023/08/28 05:55:05;;;;;;;12.07;9.40;;;11.60;99.90;;;;;;7292058;32;20223;-56
2023/08/28 05:59:07;;;;;;;6.10;5.37;;;11.80;99.90;;;;;;7294974;32;20462;-58
2023/08/28 06:03:09;;;;;;;6.18;5.57;;;12.00;99.90;;;;;;7293433;32;20187;-56
2023/08/28 06:07:11;;;;;;;9.98;6.28;;;12.20;99.90;;;;;;7291735;32;20104;-56
2023/08/28 06:11:12;;;;;;;7.95;6.03;;;12.50;99.90;;;;;;7292150;32;20221;-57
2023/08/28 06:15:17;;;;;;;7.00;6.22;;;12.70;99.90;;;;;;7302326;32;20174;-57
2023/08/28 06:19:19;;;;;;;7.43;6.30;;;12.80;99.90;;;;;;7304728;32;20183;-57
2023/08/28 06:23:21;;;;;;;8.80;5.12;;;12.90;99.90;;;;;;7291483;32;20146;-58
2023/08/28 06:27:23;;;;;;;8.38;5.82;;;12.90;99.90;;;;;;7291102;32;20553;-56
2023/08/28 06:31:25;;;;;;;7.12;5.45;;;13.00;99.90;;;;;;7306904;32;20240;-57
2023/08/28 06:35:27;;;;;;;6.72;5.55;;;13.00;99.90;;;;;;7300562;32;20416;-57
2023/08/28 06:39:29;;;;;;;9.95;5.37;;;13.10;99.90;;;;;;7301645;32;20108;-57
2023/08/28 06:43:31;;;;;;;9.45;6.10;;;13.10;99.90;;;;;;7299883;32;20826;-57
2023/08/28 06:47:33;;;;;;;6.82;5.60;;;13.10;99.90;;;;;;7283571;32;20254;-57
2023/08/28 06:51:35;;;;;;;7.35;5.75;;;13.20;99.90;;;;;;7303312;32;20189;-57
2023/08/28 06:55:37;;;;;;;8.02;6.32;;;13.30;99.90;;;;;;7300339;32;20439;-57
2023/08/28 06:59:38;;;;;;;8.13;5.60;;;13.60;99.90;;;;;;7300851;32;20195;-57
2023/08/28 07:03:40;;;;;;;7.95;5.68;;;13.50;99.90;;;;;;7292710;32;20674;-58
2023/08/28 07:07:42;;;;;;;9.10;6.80;;;13.60;99.90;;;;;;7299626;32;20124;-57
2023/08/28 07:11:44;;;;;;;8.93;6.35;;;13.70;99.90;;;;;;7296363;32;20300;-57
2023/08/28 07:15:45;;;;;;;8.63;5.97;;;13.80;99.90;;;;;;7298852;32;20183;-57
2023/08/28 07:19:47;;;;;;;6.25;5.00;;;13.90;99.90;;;;;;7293581;32;20108;-56
2023/08/28 07:23:51;;;;;;;6.70;5.40;;;13.90;99.90;;;;;;7289205;32;20195;-57
2023/08/28 07:27:53;;;;;;;10.38;7.12;;;14.00;99.90;;;;;;7295011;32;20718;-57
2023/08/28 07:31:55;;;;;;;10.38;7.30;;;14.20;99.90;;;;;;7292735;32;20604;-56
2023/08/28 07:35:56;;;;;;;9.18;6.97;;;14.30;99.90;;;;;;7296389;32;20116;-56
2023/08/28 07:39:58;;;;;;;10.10;7.45;;;14.60;99.90;;;;;;7290794;32;20820;-58
2023/08/28 07:44:00;;;;;;;8.60;7.12;;;14.70;99.90;;;;;;7291515;32;20241;-57
2023/08/28 07:48:02;;;;;;;8.80;5.90;;;15.00;99.90;;;;;;7290256;32;20144;-57
2023/08/28 07:52:04;;;;;;;10.00;6.20;;;15.10;99.90;;;;;;7289265;32;20701;-56
2023/08/28 07:56:06;;;;;;;10.85;5.87;;;15.30;99.90;;;;;;7291545;32;20771;-58
2023/08/28 08:00:13;;;;;;;10.60;5.85;;;15.40;99.90;;;;;;7299802;32;20149;-56
2023/08/28 08:04:14;;;;;;;8.75;5.37;;;15.60;99.90;;;;;;7295093;32;20458;-58
2023/08/28 08:08:16;;;;;;;9.07;5.90;;;15.80;99.90;;;;;;7272599;32;20199;-57
2023/08/28 08:12:18;;;;;;;11.98;6.05;;;16.00;99.90;;;;;;7296733;32;20100;-57
2023/08/28 08:16:20;;;;;;;11.50;5.40;;;16.00;99.90;;;;;;7303081;32;20113;-58
2023/08/28 08:20:22;;;;;;;6.18;5.35;;;16.00;99.90;;;;;;7296678;32;20130;-57
2023/08/28 08:24:23;;;;;;;10.35;6.32;;;16.10;99.90;;;;;;7299416;32;20203;-57
2023/08/28 08:28:25;;;;;;;8.88;6.50;;;16.10;99.90;;;;;;7297354;32;20128;-57
2023/08/28 08:32:27;;;;;;;9.48;5.70;;;16.20;99.90;;;;;;7293892;32;20198;-58
2023/08/28 08:36:29;;;;;;;7.10;6.18;;;16.50;99.90;;;;;;7293568;32;20126;-57
2023/08/28 08:40:34;;;;;;;7.03;5.22;;;16.80;99.90;;;;;;7295083;32;20184;-58
2023/08/28 08:44:38;;;;;;;8.25;4.90;;;16.90;99.90;;;;;;7290601;32;20147;-57
2023/08/28 08:48:42;;;;;;;13.20;4.62;;;17.10;99.90;;;;;;7297624;32;20210;-57
2023/08/28 08:52:47;;;;;;;5.10;3.40;;;17.30;99.90;;;;;;7294542;32;20740;-58
2023/08/28 08:56:53;;;;;;;5.65;4.47;;;17.50;99.90;;;;;;7297104;32;20149;-57
2023/08/28 09:00:55;;;;;;;7.07;3.92;;;17.90;99.90;;;;;;7296133;32;20114;-59
2023/08/28 09:04:57;;;;;;;7.47;3.87;;;18.30;99.90;;;;;;7291552;32;20118;-57
2023/08/28 09:08:59;;;;;;;5.55;2.83;;;18.30;99.90;;;;;;7279124;32;20126;-56
2023/08/28 09:13:04;;;;;;;7.45;2.92;;;18.10;99.90;;;;;;7295122;32;20191;-56
2023/08/28 09:17:06;;;;;;;4.87;2.70;;;18.20;99.90;;;;;;7295989;32;20584;-57
2023/08/28 09:21:14;;;;;;;4.12;2.03;;;18.00;99.90;;;;;;7285655;32;20522;-56
2023/08/28 09:25:17;;;;;;;3.30;1.60;;;17.80;99.90;;;;;;7294338;32;20158;-56
2023/08/28 09:29:23;;;;;;;5.28;1.80;;;17.80;99.90;;;;;;7296652;32;20100;-57
2023/08/28 09:33:44;;;;;;;3.10;1.30;;;17.70;99.90;;;;;;7296160;32;20169;-57
2023/08/28 09:38:07;;;;;;;3.37;1.20;;;18.20;99.90;;;;;;7290969;32;20276;-57
2023/08/28 09:42:09;;;;;;;2.35;0.82;;;18.90;99.90;;;;;;7298119;32;20214;-56
2023/08/28 09:46:11;;;;;;;3.80;0.85;;;19.20;99.90;;;;;;7297614;32;20108;-56
2023/08/28 09:50:13;;;;;;;1.80;0.60;;;19.30;99.90;;;;;;7290140;32;20234;-57
2023/08/28 09:54:16;;;;;;;3.35;0.98;;;19.20;99.90;;;;;;7291967;32;20736;-57
2023/08/28 09:58:19;;;;;;;3.37;0.88;;;19.30;99.90;;;;;;7290403;32;20226;-56
2023/08/28 10:02:21;;;;;;;1.83;0.80;;;19.30;99.90;;;;;;7291301;32;20132;-57
2023/08/28 10:06:25;;;;;;;4.55;0.85;;;19.20;99.90;;;;;;7296456;32;20251;-56
2023/08/28 10:10:27;;;;;;;2.65;0.60;;;19.10;99.90;;;;;;7289597;32;20099;-56
2023/08/28 10:14:31;;;;;;;1.50;0.60;;;19.10;99.90;;;;;;7288010;32;20100;-56
2023/08/28 10:18:44;;;;;;;2.72;1.20;;;19.50;99.90;;;;;;7296161;32;20131;-56
2023/08/28 10:22:47;;;;;;;1.80;0.80;;;19.70;99.90;;;;;;7295643;32;20114;-56
2023/08/28 10:26:50;;;;;;;2.95;1.00;;;19.50;99.90;;;;;;7290485;32;21165;-57
2023/08/28 10:30:52;;;;;;;2.87;1.05;;;19.30;99.90;;;;;;7289330;32;20165;-56
2023/08/28 10:34:56;;;;;;;5.97;1.58;;;19.10;99.90;;;;;;7291226;32;20223;-55
2023/08/28 10:39:00;;;;;;;2.08;0.93;;;19.00;99.90;;;;;;7295769;32;20123;-57
2023/08/28 10:43:04;;;;;;;2.75;1.20;;;19.20;99.90;;;;;;7295626;32;20518;-56
2023/08/28 10:47:06;;;;;;;2.42;1.40;;;19.40;99.90;;;;;;7291252;32;20437;-57
2023/08/28 10:51:12;;;;;;;5.10;1.52;;;19.00;99.90;;;;;;7270276;32;20143;-55
2023/08/28 10:55:18;;;;;;;2.42;1.00;;;19.10;99.90;;;;;;7295043;32;20240;-55
2023/08/28 10:59:25;;;;;;;2.77;1.07;;;19.20;99.90;;;;;;7290111;32;20122;-55
2023/08/28 11:03:56;;;;;;;2.42;1.70;;;19.40;99.90;;;;;;7282731;32;20141;-56
2023/08/28 11:08:04;;;;;;;1.92;1.70;;;19.60;99.90;;;;;;7297549;32;20854;-56
2023/08/28 11:12:23;;;;;;;2.22;1.60;;;19.70;99.90;;;;;;7297378;32;20154;-56
2023/08/28 11:16:25;;;;;;;5.82;2.42;;;20.00;99.90;;;;;;7299430;32;20231;-56
2023/08/28 11:20:35;;;;;;;4.62;2.05;;;20.10;99.90;;;;;;7305904;32;20100;-56
2023/08/28 11:24:36;;;;;;;5.35;2.28;;;20.40;99.90;;;;;;7283357;32;20104;-57
2023/08/28 11:28:44;;;;;;;3.53;1.60;;;20.50;99.90;;;;;;7313563;32;20103;-56
2023/08/28 11:32:52;;;;;;;2.72;1.65;;;20.80;99.90;;;;;;7294990;32;20498;-56
2023/08/28 11:36:55;;;;;;;4.93;1.80;;;20.60;99.90;;;;;;7308989;32;20182;-56
2023/08/28 11:41:01;;;;;;;4.43;1.83;;;20.30;99.90;;;;;;7291259;32;20521;-57
2023/08/28 11:45:05;;;;;;;3.47;1.97;;;20.90;99.90;;;;;;7297146;32;20259;-55
2023/08/28 11:49:07;;;;;;;2.85;2.10;;;20.90;99.90;;;;;;7291319;32;20126;-56
2023/08/28 11:53:08;;;;;;;3.87;2.12;;;20.60;99.90;;;;;;7294113;32;20214;-57
2023/08/28 11:57:11;;;;;;;5.53;1.73;;;20.40;99.90;;;;;;7284339;32;20760;-58
2023/08/28 12:01:15;;;;;;;3.33;1.70;;;20.50;99.90;;;;;;7285321;32;20574;-56
2023/08/28 12:05:18;;;;;;;3.17;1.50;;;20.70;99.90;;;;;;7297888;32;20135;-56
2023/08/28 12:09:21;;;;;;;4.50;1.73;;;20.70;99.90;;;;;;7292766;32;20901;-56
2023/08/28 12:13:23;;;;;;;3.45;1.50;;;20.90;99.90;;;;;;7294197;32;21645;-57
2023/08/28 12:17:28;;;;;;;4.35;1.73;;;21.00;99.90;;;;;;7291995;32;20112;-56
2023/08/28 12:21:34;;;;;;;3.08;1.60;;;20.70;99.90;;;;;;7281154;32;20210;-56
2023/08/28 12:25:40;;;;;;;5.72;1.80;;;20.50;99.90;;;;;;7293653;32;20158;-57
2023/08/28 12:29:42;;;;;;;3.55;1.98;;;20.20;99.90;;;;;;7292399;32;20104;-57
2023/08/28 12:33:44;;;;;;;4.50;2.05;;;20.10;99.90;;;;;;7284827;32;20246;-56
2023/08/28 12:37:51;;;;;;;3.10;2.20;;;20.20;99.90;;;;;;7281997;32;20151;-57
2023/08/28 12:41:55;;;;;;;3.90;2.08;;;20.10;99.90;;;;;;7296158;32;20121;-57
2023/08/28 12:46:15;;;;;;;3.87;2.28;;;20.00;99.90;;;;;;7297682;32;20796;-57
2023/08/28 12:50:36;;;;;;;3.65;2.47;;;19.40;99.90;;;;;;7292096;32;20183;-58
2023/08/28 12:54:57;;;;;;;4.07;2.40;;;19.30;99.90;;;;;;7292404;32;20100;-56
2023/08/28 12:58:59;;;;;;;5.00;2.37;;;19.40;99.90;;;;;;7286946;32;20118;-56
2023/08/28 13:03:01;;;;;;;4.45;2.22;;;19.40;99.90;;;;;;7289745;32;20221;-57
2023/08/28 13:07:05;;;;;;;2.45;2.08;;;19.50;99.90;;;;;;7287366;32;20214;-56
2023/08/28 13:11:07;;;;;;;3.03;2.15;;;19.70;99.90;;;;;;7293859;32;20139;-57
2023/08/28 13:15:09;;;;;;;4.30;2.25;;;19.80;99.90;;;;;;7291709;32;20501;-56
2023/08/28 13:19:11;;;;;;;3.55;2.42;;;19.70;99.90;;;;;;7294909;32;20119;-57
2023/08/28 13:23:13;;;;;;;2.92;1.90;;;19.70;99.90;;;;;;7295751;32;20100;-56
2023/08/28 13:27:15;;;;;;;4.40;1.95;;;19.80;99.90;;;;;;7290190;32;20104;-56
2023/08/28 13:31:17;;;;;;;5.45;4.62;;;19.70;99.90;;;;;;7291782;32;20478;-57
2023/08/28 13:35:19;;;;;;;3.97;2.20;;;19.60;99.90;;;;;;7290963;32;20125;-57
2023/08/28 13:39:20;;;;;;;3.70;2.05;;;19.70;99.90;;;;;;7295968;32;20241;-57
2023/08/28 13:43:22;;;;;;;3.92;2.08;;;19.80;99.90;;;;;;7296546;32;20159;-58
2023/08/28 13:47:24;;;;;;;2.85;2.00;;;19.80;99.90;;;;;;7289666;32;20237;-57
2023/08/28 13:51:26;;;;;;;5.32;2.33;;;19.90;99.90;;;;;;7293282;32;20269;-57
2023/08/28 13:55:29;;;;;;;4.82;2.50;;;19.60;99.90;;;;;;7286079;32;20222;-55
2023/08/28 13:59:31;;;;;;;3.00;2.20;;;19.50;99.90;;;;;;7297185;32;20148;-56
2023/08/28 14:03:33;;;;;;;4.22;2.30;;;19.60;99.90;;;;;;7294707;32;20425;-56
2023/08/28 14:07:35;;;;;;;3.78;2.28;;;19.60;99.90;;;;;;7278462;32;20120;-55
2023/08/28 14:11:36;;;;;;;3.90;2.20;;;19.60;99.90;;;;;;7291534;32;20537;-56
2023/08/28 14:15:38;;;;;;;3.00;1.85;;;19.60;99.90;;;;;;7291163;32;20127;-57
2023/08/28 14:19:40;;;;;;;7.60;2.40;;;19.70;99.90;;;;;;7295191;32;20132;-57
2023/08/28 14:23:42;;;;;;;2.00;1.80;;;19.80;99.90;;;;;;7265140;32;20135;-57
2023/08/28 14:27:44;;;;;;;3.03;1.87;;;19.80;99.90;;;;;;7294587;32;20205;-57
2023/08/28 14:32:00;;;;;;;2.67;1.92;;;19.70;99.90;;;;;;7291832;32;20116;-57
2023/08/28 14:36:01;;;;;;;5.18;1.73;;;19.80;99.90;;;;;;7298304;32;20479;-56
2023/08/28 14:40:03;;;;;;;3.80;1.62;;;19.70;99.90;;;;;;7296376;32;20087;-57
2023/08/28 14:44:05;;;;;;;4.65;1.70;;;19.60;99.90;;;;;;7295770;32;20126;-57
2023/08/28 14:48:07;;;;;;;2.25;1.30;;;19.60;99.90;;;;;;7290234;32;20104;-56
2023/08/28 14:52:10;;;;;;;3.17;1.27;;;19.50;99.90;;;;;;7295114;32;20662;-57
2023/08/28 14:56:12;;;;;;;3.53;1.52;;;19.40;99.90;;;;;;7285626;32;20358;-57
2023/08/28 15:00:15;;;;;;;3.08;1.25;;;19.50;99.90;;;;;;7285645;32;20830;-56
2023/08/28 15:04:17;;;;;;;3.35;1.05;;;19.50;99.90;;;;;;7295101;32;20188;-56
2023/08/28 15:08:19;;;;;;;3.47;1.10;;;19.50;99.90;;;;;;7296335;32;20171;-57
2023/08/28 15:12:21;;;;;;;2.90;1.00;;;19.40;99.90;;;;;;7294365;32;20211;-56
2023/08/28 15:16:23;;;;;;;2.30;1.20;;;19.40;99.90;;;;;;7298040;32;20183;-57
2023/08/28 15:20:24;;;;;;;2.83;1.20;;;19.20;99.90;;;;;;7270570;32;20202;-57
2023/08/28 15:24:26;;;;;;;4.90;1.40;;;19.20;99.90;;;;;;7295735;32;20191;-56
2023/08/28 15:28:28;;;;;;;2.53;1.27;;;19.20;99.90;;;;;;7298621;32;20387;-57
2023/08/28 15:32:30;;;;;;;0.93;0.73;;;19.30;99.90;;;;;;7293736;32;20514;-57
2023/08/28 15:36:31;;;;;;;1.87;1.30;;;19.30;99.90;;;;;;7292753;32;20299;-57
2023/08/28 15:40:34;;;;;;;2.00;1.17;;;19.20;99.90;;;;;;7296305;32;20606;-57
2023/08/28 15:44:35;;;;;;;2.62;1.08;;;19.30;99.90;;;;;;7296265;32;20111;-56
2023/08/28 15:48:37;;;;;;;2.95;0.80;;;19.20;99.90;;;;;;7281605;32;20301;-57
2023/08/28 15:52:39;;;;;;;2.20;1.00;;;19.30;99.90;;;;;;7278017;32;20403;-56
2023/08/28 15:56:41;;;;;;;2.85;0.93;;;19.40;99.90;;;;;;7272071;32;20476;-57
2023/08/28 16:00:43;;;;;;;1.80;0.90;;;19.40;99.90;;;;;;7283884;32;20245;-57
2023/08/28 16:04:45;;;;;;;1.55;0.80;;;19.30;99.90;;;;;;7288795;32;20347;-56
2023/08/28 16:08:46;;;;;;;1.77;0.82;;;19.10;99.90;;;;;;7287755;32;20235;-56
2023/08/28 16:12:48;;;;;;;2.58;1.02;;;19.20;99.90;;;;;;7281258;32;20590;-57
2023/08/28 16:16:51;;;;;;;1.50;0.98;;;19.10;99.90;;;;;;7290969;32;20157;-57
2023/08/28 16:20:53;;;;;;;2.42;0.90;;;19.20;99.90;;;;;;7296548;32;20126;-57
2023/08/28 16:24:55;;;;;;;2.00;1.00;;;19.10;99.90;;;;;;7283943;32;20199;-58
2023/08/28 16:28:56;;;;;;;3.22;1.10;;;19.00;99.90;;;;;;7280485;32;20145;-57
2023/08/28 16:32:58;;;;;;;2.37;1.08;;;19.00;99.90;;;;;;7293251;32;20104;-57
2023/08/28 16:37:00;;;;;;;1.37;0.95;;;18.90;99.90;;;;;;7278829;32;20100;-57
2023/08/28 16:41:02;;;;;;;4.18;1.23;;;18.80;99.90;;;;;;7286531;32;20255;-56
2023/08/28 16:45:04;;;;;;;1.98;1.00;;;18.90;99.90;;;;;;7291742;32;20126;-56
2023/08/28 16:49:06;;;;;;;2.83;1.15;;;18.80;99.90;;;;;;7294165;32;20298;-57
2023/08/28 16:53:08;;;;;;;2.83;1.02;;;18.80;99.90;;;;;;7290485;32;20096;-57
2023/08/28 16:57:09;;;;;;;1.85;1.10;;;18.80;99.90;;;;;;7297393;32;20164;-57
2023/08/28 17:01:11;;;;;;;1.75;1.15;;;18.70;99.90;;;;;;7296755;32;20225;-57
2023/08/28 17:05:13;;;;;;;1.35;1.20;;;18.80;99.90;;;;;;7292160;32;20771;-58
2023/08/28 17:09:16;;;;;;;3.00;1.37;;;18.70;99.90;;;;;;7293519;32;20179;-58
2023/08/28 17:13:18;;;;;;;2.35;1.20;;;18.70;99.90;;;;;;7297922;32;20227;-58
2023/08/28 17:17:20;;;;;;;1.37;1.17;;;18.60;99.90;;;;;;7283677;32;20126;-58
2023/08/28 17:21:22;;;;;;;3.33;1.00;;;18.40;99.90;;;;;;7279427;32;20173;-58
2023/08/28 17:25:23;;;;;;;2.15;1.08;;;18.30;99.90;;;;;;7289779;32;20318;-58
2023/08/28 17:29:27;;;;;;;2.97;1.33;;;18.10;99.90;;;;;;7293283;32;20095;-58
2023/08/28 17:33:30;;;;;;;4.25;1.20;;;18.00;99.90;;;;;;7278759;32;20612;-58
2023/08/28 17:37:32;;;;;;;6.25;1.40;;;17.90;99.90;;;;;;7298195;32;20108;-58
2023/08/28 17:41:33;;;;;;;4.22;3.40;;;17.70;99.90;;;;;;7296844;32;20099;-58
2023/08/28 17:45:35;;;;;;;5.55;3.12;;;17.50;99.90;;;;;;7300103;32;20248;-57
2023/08/28 17:49:37;;;;;;;3.28;2.40;;;17.40;99.90;;;;;;7291358;32;20280;-55
2023/08/28 17:53:39;;;;;;;4.90;3.00;;;17.20;99.90;;;;;;7288036;32;20121;-56
2023/08/28 17:57:41;;;;;;;6.15;3.62;;;17.10;99.90;;;;;;7281542;32;20258;-56
2023/08/28 18:01:43;;;;;;;5.97;2.95;;;17.00;99.90;;;;;;7290349;32;20234;-55
2023/08/28 18:05:51;;;;;;;4.47;2.67;;;16.80;99.90;;;;;;7290437;32;20125;-56
2023/08/28 18:09:53;;;;;;;4.35;2.30;;;16.70;99.90;;;;;;7292567;32;20149;-57
2023/08/28 18:13:55;;;;;;;4.18;2.20;;;16.50;99.90;;;;;;7270525;32;20190;-55
2023/08/28 18:17:57;;;;;;;8.32;3.00;;;16.40;99.90;;;;;;7285505;32;20096;-57
2023/08/28 18:21:58;;;;;;;4.90;2.75;;;16.30;99.90;;;;;;7303136;32;20863;-56
2023/08/28 18:26:03;;;;;;;12.88;7.78;;;16.20;99.90;;;;;;7296315;32;20147;-56
2023/08/28 18:30:05;;;;;;;4.65;2.97;;;16.10;99.90;;;;;;7295619;32;20125;-56
2023/08/28 18:34:07;;;;;;;6.68;3.30;;;16.10;99.90;;;;;;7299639;32;20100;-55
2023/08/28 18:38:09;;;;;;;5.12;3.12;;;16.00;99.90;;;;;;7294981;32;20177;-56
2023/08/28 18:42:11;;;;;;;5.82;2.62;;;16.00;99.90;;;;;;7281141;32;20092;-56
2023/08/28 18:46:12;;;;;;;4.85;2.92;;;16.00;99.90;;;;;;7298091;32;20202;-56
2023/08/28 18:50:14;;;;;;;6.15;3.42;;;15.90;99.90;;;;;;7293843;32;20142;-56
2023/08/28 18:54:16;;;;;;;6.55;4.93;;;15.90;99.90;;;;;;7295458;32;20356;-56
2023/08/28 18:58:18;;;;;;;6.22;3.33;;;15.80;99.90;;;;;;7296293;32;20204;-56
2023/08/28 19:02:19;;;;;;;7.75;3.97;;;15.70;99.90;;;;;;7296481;32;20280;-56
2023/08/28 19:06:21;;;;;;;10.80;6.78;;;15.70;99.90;;;;;;7296520;32;20116;-55
2023/08/28 19:10:23;;;;;;;5.65;5.05;;;15.60;99.90;;;;;;7298573;32;20737;-56
2023/08/28 19:14:25;;;;;;;8.20;3.70;;;15.50;99.90;;;;;;7294266;32;20183;-55
2023/08/28 19:18:27;;;;;;;4.32;3.03;;;15.50;99.90;;;;;;7297149;32;20195;-55
2023/08/28 19:22:28;;;;;;;4.75;3.37;;;15.50;99.90;;;;;;7294217;32;20175;-56
2023/08/28 19:26:30;;;;;;;5.80;3.03;;;15.40;99.90;;;;;;7291395;32;20296;-55
2023/08/28 19:30:32;;;;;;;9.07;3.58;;;15.40;99.90;;;;;;7296614;32;20575;-55
2023/08/28 19:34:34;;;;;;;5.72;3.47;;;15.40;99.90;;;;;;7293647;32;20182;-55
2023/08/28 19:38:35;;;;;;;7.95;3.60;;;15.30;99.90;;;;;;7291686;32;20194;-56
2023/08/28 19:42:39;;;;;;;6.00;3.37;;;15.20;99.90;;;;;;7293299;32;20268;-56
2023/08/28 19:46:41;;;;;;;5.18;3.00;;;15.20;99.90;;;;;;7289014;32;20507;-55
2023/08/28 19:50:43;;;;;;;4.60;3.10;;;15.20;99.90;;;;;;7289718;32;20793;-55
2023/08/28 19:54:49;;;;;;;6.12;3.50;;;15.20;99.90;;;;;;7289631;32;20127;-56
2023/08/28 19:58:50;;;;;;;3.80;3.42;;;15.20;99.90;;;;;;7299958;32;20183;-56
2023/08/28 20:02:52;;;;;;;6.65;2.80;;;15.20;99.90;;;;;;7297024;32;20103;-56
2023/08/28 20:06:54;;;;;;;6.00;3.08;;;15.10;99.90;;;;;;7296910;32;20819;-56
2023/08/28 20:10:56;;;;;;;6.32;3.05;;;15.00;99.90;;;;;;7297439;32;20100;-56
2023/08/28 20:14:59;;;;;;;5.82;2.80;;;15.00;99.90;;;;;;7293455;32;20769;-56
2023/08/28 20:19:00;;;;;;;12.70;3.33;;;15.00;99.90;;;;;;7296961;32;21240;-55
2023/08/28 20:23:03;;;;;;;7.10;3.58;;;14.90;99.90;;;;;;7299088;32;20095;-56
2023/08/28 20:27:07;;;;;;;5.87;3.95;;;14.90;99.90;;;;;;7298197;32;20238;-56
2023/08/28 20:31:09;;;;;;;10.35;4.20;;;14.90;99.90;;;;;;7293310;32;20213;-56
2023/08/28 20:35:11;;;;;;;5.05;3.42;;;14.80;99.90;;;;;;7296833;32;20223;-56
2023/08/28 20:39:13;;;;;;;8.02;3.85;;;14.90;99.90;;;;;;7295257;32;20123;-55
2023/08/28 20:43:14;;;;;;;3.90;3.00;;;14.90;99.90;;;;;;7295551;32;20136;-55
2023/08/28 20:47:16;;;;;;;3.20;2.90;;;14.80;99.90;;;;;;7295591;32;20652;-56
2023/08/28 20:51:18;;;;;;;5.97;3.33;;;14.80;99.90;;;;;;7295063;32;20159;-55
2023/08/28 20:57:37;;;;;;;4.62;3.35;;;14.80;99.90;;;;;;7396754;31;20115;-57
2023/08/28 21:01:39;;;;;;;5.30;3.50;;;14.70;99.90;;;;;;7369853;32;20143;-56
2023/08/28 21:05:41;;;;;;;7.55;3.80;;;14.70;99.90;;;;;;7358157;32;20190;-56